createdAt,value
2019-04-05T03:07:12.243Z,48.1
2019-04-05T03:08:02.046Z,48
2019-04-05T03:09:07.316Z,47.9
2019-04-05T03:09:42.732Z,47.9
2019-04-05T03:10:32.756Z,47.9
2019-04-05T03:11:22.256Z,47.8
2019-04-05T03:12:12.636Z,47.8
2019-04-05T03:13:02.660Z,47.8
2019-04-05T03:13:52.766Z,47.8
2019-04-05T03:14:42.670Z,47.8
2019-04-05T03:15:32.263Z,47.8
2019-04-05T03:16:42.463Z,47.8
2019-04-05T03:17:12.984Z,47.8
2019-04-05T03:18:03.081Z,47.8
2019-04-05T03:18:53.363Z,47.8
2019-04-05T03:19:42.907Z,47.8
2019-04-05T03:20:33.483Z,47.7
2019-04-05T03:21:23.316Z,47.7
2019-04-05T03:22:13.576Z,47.7
2019-04-05T03:23:03.428Z,47.7
2019-04-05T03:23:53.727Z,47.7
2019-04-05T03:24:43.794Z,47.6
2019-04-05T03:25:33.700Z,47.7
2019-04-05T03:26:23.887Z,47.6
2019-04-05T03:27:13.411Z,47.6
2019-04-05T03:28:03.710Z,47.6
2019-04-05T03:28:54.069Z,47.6
2019-04-05T03:29:43.832Z,47.6
2019-04-05T03:30:34.306Z,47.6
2019-04-05T03:31:29.596Z,47.6
2019-04-05T03:32:14.527Z,47.6
2019-04-05T03:33:04.646Z,47.6
2019-04-05T03:33:54.563Z,47.6
2019-04-05T03:34:44.778Z,47.6
2019-04-05T03:35:34.461Z,47.5
2019-04-05T03:36:24.324Z,47.5
2019-04-05T03:37:13.840Z,47.5
2019-04-05T03:38:04.191Z,47.5
2019-04-05T03:38:54.242Z,47.5
2019-04-05T03:39:44.906Z,47.4
2019-04-05T03:40:34.093Z,47.4
2019-04-05T03:41:25.240Z,47.4
2019-04-05T03:42:14.503Z,47.4
2019-04-05T03:43:04.047Z,47.4
2019-04-05T03:43:54.926Z,47.4
2019-04-05T03:44:45.010Z,47.4
2019-04-05T03:45:34.989Z,47.4
2019-04-05T03:46:24.796Z,47.4
2019-04-05T03:47:15.131Z,47.4
2019-04-05T03:48:05.313Z,47.4
2019-04-05T03:48:55.308Z,47.4
2019-04-05T03:49:45.588Z,47.3
2019-04-05T03:50:35.093Z,47.3
2019-04-05T03:51:25.270Z,47.3
2019-04-05T03:52:15.758Z,47.3
2019-04-05T03:53:05.854Z,47.3
2019-04-05T03:53:55.645Z,47.3
2019-04-05T03:54:45.679Z,47.3
2019-04-05T03:55:35.993Z,47.3
2019-04-05T03:56:26.110Z,47.3
2019-04-05T03:57:15.876Z,47.3
2019-04-05T03:58:05.849Z,47.3
2019-04-05T03:58:55.733Z,47.3
2019-04-05T03:59:46.295Z,47.3
2019-04-05T04:00:36.402Z,47.2
2019-04-05T04:01:26.207Z,47.2
2019-04-05T04:02:15.923Z,47.2
2019-04-05T04:03:06.535Z,47.2
2019-04-05T04:03:56.095Z,47.2
2019-04-05T04:05:01.059Z,47.2
2019-04-05T04:05:36.169Z,47.1
2019-04-05T04:06:26.598Z,47.2
2019-04-05T04:07:16.579Z,47.1
2019-04-05T04:08:06.652Z,47.1
2019-04-05T04:08:56.298Z,47.1
2019-04-05T04:09:47.052Z,47.1
2019-04-05T04:10:36.797Z,47.1
2019-04-05T04:11:26.877Z,47.1
2019-04-05T04:12:17.247Z,47.1
2019-04-05T04:13:07.125Z,47.1
2019-04-05T04:13:57.312Z,47.1
2019-04-05T04:14:47.093Z,47.1
2019-04-05T04:15:37.506Z,47.1
2019-04-05T04:16:27.252Z,47.1
2019-04-05T04:17:17.447Z,47
2019-04-05T04:18:07.608Z,47
2019-04-05T04:18:57.744Z,47
2019-04-05T04:19:47.772Z,46.9
2019-04-05T04:20:37.830Z,46.9
2019-04-05T04:21:27.627Z,46.8
2019-04-05T04:22:17.677Z,46.8
2019-04-05T04:23:07.995Z,46.8
2019-04-05T04:23:58.060Z,46.8
2019-04-05T04:24:48.255Z,46.8
2019-04-05T04:25:37.944Z,46.8
2019-04-05T04:26:28.235Z,46.8
2019-04-05T04:27:18.032Z,46.8
2019-04-05T04:28:07.796Z,46.8
2019-04-05T04:28:58.521Z,46.8
2019-04-05T04:29:48.471Z,46.7
2019-04-05T04:30:37.726Z,46.7
2019-04-05T04:31:28.342Z,46.7
2019-04-05T04:32:18.767Z,46.7
2019-04-05T04:33:08.851Z,46.7
2019-04-05T04:33:58.881Z,46.7
2019-04-05T04:34:48.829Z,46.7
2019-04-05T04:35:53.315Z,46.6
2019-04-05T04:36:28.696Z,46.6
2019-04-05T04:37:18.731Z,46.6
2019-04-05T04:38:09.047Z,46.6
2019-04-05T04:38:58.871Z,46.6
2019-04-05T04:39:48.921Z,46.6
2019-04-05T04:40:39.011Z,46.6
2019-04-05T04:41:33.397Z,46.6
2019-04-05T04:42:19.368Z,46.6
2019-04-05T04:43:09.123Z,46.6
2019-04-05T04:43:59.498Z,46.6
2019-04-05T04:44:49.514Z,46.6
2019-04-05T04:45:38.808Z,46.6
2019-04-05T04:46:29.383Z,46.5
2019-04-05T04:47:30.748Z,46.5
2019-04-05T04:48:09.833Z,46.5
2019-04-05T04:48:59.568Z,46.5
2019-04-05T04:49:49.618Z,46.5
2019-04-05T04:50:39.393Z,46.5
2019-04-05T04:51:29.977Z,46.4
2019-04-05T04:52:34.442Z,46.4
2019-04-05T04:53:09.827Z,46.4
2019-04-05T04:53:59.903Z,46.4
2019-04-05T04:54:50.220Z,46.4
2019-04-05T04:55:40.339Z,46.4
2019-04-05T04:56:30.072Z,46.4
2019-04-05T04:57:20.403Z,46.4
2019-04-05T04:58:09.669Z,46.4
2019-04-05T04:58:59.697Z,46.4
2019-04-05T04:59:50.317Z,46.4
2019-04-05T05:00:40.387Z,46.3
2019-04-05T05:01:30.212Z,46.3
2019-04-05T05:02:20.798Z,46.2
2019-04-05T05:03:10.555Z,46.1
2019-04-05T05:04:00.953Z,46
2019-04-05T05:04:51.033Z,45.9
2019-04-05T05:05:41.043Z,45.8
2019-04-05T05:06:30.797Z,45.8
2019-04-05T05:07:20.869Z,45.7
2019-04-05T05:08:11.202Z,45.6
2019-04-05T05:09:01.009Z,45.5
2019-04-05T05:09:51.044Z,45.4
2019-04-05T05:10:41.102Z,45.3
2019-04-05T05:11:30.329Z,45.3
2019-04-05T05:12:21.224Z,45.3
2019-04-05T05:13:11.360Z,45.2
2019-04-05T05:14:01.612Z,45.2
2019-04-05T05:14:51.200Z,45.2
2019-04-05T05:15:41.736Z,45.1
2019-04-05T05:16:30.010Z,45.1
2019-04-05T05:17:21.391Z,45.1
2019-04-05T05:18:10.888Z,45.1
2019-04-05T05:19:01.216Z,45.1
2019-04-05T05:19:51.010Z,45.1
2019-04-05T05:20:43.776Z,45.1
2019-04-05T05:21:31.663Z,45.1
2019-04-05T05:22:21.728Z,45
2019-04-05T05:23:11.308Z,45
2019-04-05T05:24:01.854Z,45
2019-04-05T05:24:51.915Z,45
2019-04-05T05:25:41.983Z,45
2019-04-05T05:26:32.511Z,45
2019-04-05T05:27:21.821Z,45
2019-04-05T05:28:12.636Z,44.9
2019-04-05T05:29:02.277Z,44.9
2019-04-05T05:29:52.006Z,44.9
2019-04-05T05:30:42.740Z,44.9
2019-04-05T05:31:32.600Z,44.9
2019-04-05T05:32:22.661Z,44.9
2019-04-05T05:33:12.728Z,44.9
2019-04-05T05:34:02.503Z,44.9
2019-04-05T05:35:06.049Z,44.9
2019-04-05T05:35:42.637Z,44.9
2019-04-05T05:36:32.917Z,44.9
2019-04-05T05:37:23.039Z,44.8
2019-04-05T05:38:28.038Z,44.8
2019-04-05T05:39:03.448Z,44.8
2019-04-05T05:39:53.718Z,44.8
2019-04-05T05:40:43.254Z,44.8
2019-04-05T05:41:33.363Z,44.8
2019-04-05T05:42:23.120Z,44.8
2019-04-05T05:43:13.730Z,44.8
2019-04-05T05:44:03.792Z,44.8
2019-04-05T05:44:53.617Z,44.8
2019-04-05T05:45:43.689Z,44.7
2019-04-05T05:46:34.002Z,44.7
2019-04-05T05:47:23.812Z,44.7
2019-04-05T05:48:13.580Z,44.7
2019-04-05T05:49:04.194Z,44.7
2019-04-05T05:49:54.239Z,44.6
2019-04-05T05:50:44.234Z,44.6
2019-04-05T05:51:34.319Z,44.6
2019-04-05T05:52:24.339Z,44.6
2019-04-05T05:53:13.891Z,44.6
2019-04-05T05:54:04.256Z,44.6
2019-04-05T05:54:53.862Z,44.6
2019-04-05T05:55:44.631Z,44.6
2019-04-05T05:56:34.229Z,44.6
2019-04-05T05:57:24.749Z,44.6
2019-04-05T05:58:14.510Z,44.6
2019-04-05T05:59:04.613Z,44.6
2019-04-05T05:59:54.906Z,44.6
2019-04-05T06:00:44.695Z,44.5
2019-04-05T06:01:34.221Z,44.5
2019-04-05T06:02:24.636Z,44.5
2019-04-05T06:05:11.583Z,44.4
2019-04-05T06:06:08.323Z,44.4
2019-04-05T06:06:52.180Z,44.4
2019-04-05T06:07:41.766Z,44.4
2019-04-05T06:08:32.963Z,44.4
2019-04-05T06:09:21.871Z,44.4
2019-04-05T06:10:12.480Z,44.4
2019-04-05T06:11:01.651Z,44.4
2019-04-05T06:11:52.631Z,44.4
2019-04-05T06:12:42.605Z,44.4
2019-04-05T06:13:32.751Z,44.4
2019-04-05T06:14:23.085Z,44.4
2019-04-05T06:15:12.505Z,44.3
2019-04-05T06:16:03.150Z,44.3
2019-04-05T06:17:08.098Z,44.3
2019-04-05T06:17:43.306Z,44.3
2019-04-05T06:18:33.290Z,44.3
2019-04-05T06:19:23.135Z,44.3
2019-04-05T06:20:12.439Z,44.3
2019-04-05T06:21:06.790Z,44.3
2019-04-05T06:21:53.526Z,44.3
2019-04-05T06:22:43.020Z,44.3
2019-04-05T06:23:37.770Z,44.3
2019-04-05T06:24:23.733Z,44.3
2019-04-05T06:25:13.935Z,44.2
2019-04-05T06:26:03.575Z,44.2
2019-04-05T06:26:53.632Z,44.2
2019-04-05T06:27:43.667Z,44.2
2019-04-05T06:28:34.328Z,44.2
2019-04-05T06:29:24.064Z,44.2
2019-04-05T06:30:13.630Z,44.1
2019-04-05T06:31:04.313Z,44.1
2019-04-05T06:31:53.914Z,44.1
2019-04-05T06:32:43.764Z,44.1
2019-04-05T06:33:38.804Z,44.1
2019-04-05T06:34:23.884Z,44.1
2019-04-05T06:35:14.190Z,44.1
2019-04-05T06:36:04.296Z,44.1
2019-04-05T06:36:54.929Z,44.1
2019-04-05T06:37:44.399Z,44.1
2019-04-05T06:38:34.189Z,44.1
2019-04-05T06:39:24.302Z,44
2019-04-05T06:40:14.285Z,44
2019-04-05T06:41:04.788Z,44
2019-04-05T06:41:54.136Z,44
2019-04-05T06:42:44.764Z,44
2019-04-05T06:43:34.537Z,43.9
2019-04-05T06:44:28.482Z,43.9
2019-04-05T06:45:14.740Z,43.9
2019-04-05T06:46:06.722Z,43.9
2019-04-05T06:46:55.264Z,43.9
2019-04-05T06:47:44.922Z,43.9
2019-04-05T06:48:35.451Z,43.9
2019-04-05T06:49:25.524Z,43.9
2019-04-05T06:50:15.001Z,43.9
2019-04-05T06:51:05.139Z,43.9
2019-04-05T06:51:55.438Z,43.9
2019-04-05T06:52:45.191Z,43.9
2019-04-05T06:53:35.805Z,43.8
2019-04-05T06:54:25.867Z,43.8
2019-04-05T06:55:15.934Z,43.8
2019-04-05T06:56:06.011Z,43.8
2019-04-05T06:56:55.795Z,43.8
2019-04-05T06:57:46.261Z,43.8
2019-04-05T06:58:36.165Z,43.8
2019-04-05T06:59:25.963Z,43.8
2019-04-05T07:00:15.694Z,43.8
2019-04-05T07:01:05.500Z,43.8
2019-04-05T07:01:56.403Z,43.7
2019-04-05T07:02:46.490Z,43.8
2019-04-05T07:05:12.356Z,43.7
2019-04-05T07:06:02.088Z,43.7
2019-04-05T07:06:52.425Z,43.7
2019-04-05T07:07:42.213Z,43.6
2019-04-05T07:08:32.630Z,43.6
2019-04-05T07:09:22.050Z,43.6
2019-04-05T07:10:12.374Z,43.6
2019-04-05T07:11:02.770Z,43.6
2019-04-05T07:11:52.497Z,43.6
2019-04-05T07:12:42.100Z,43.6
2019-04-05T07:13:32.782Z,43.6
2019-04-05T07:14:22.980Z,43.6
2019-04-05T07:15:12.457Z,43.6
2019-04-05T07:16:03.060Z,43.6
2019-04-05T07:16:53.135Z,43.5
2019-04-05T07:17:43.180Z,43.5
2019-04-05T07:18:39.331Z,43.5
2019-04-05T07:19:23.322Z,43.5
2019-04-05T07:20:12.879Z,43.5
2019-04-05T07:21:02.904Z,43.5
2019-04-05T07:21:53.222Z,43.4
2019-04-05T07:22:42.824Z,43.4
2019-04-05T07:23:33.351Z,43.4
2019-04-05T07:24:23.441Z,43.4
2019-04-05T07:25:13.760Z,43.4
2019-04-05T07:26:03.786Z,43.4
2019-04-05T07:26:53.054Z,43.4
2019-04-05T07:27:43.910Z,43.4
2019-04-05T07:28:33.996Z,43.4
2019-04-05T07:29:24.086Z,43.4
2019-04-05T07:30:14.120Z,43.4
2019-04-05T07:31:03.969Z,43.4
2019-04-05T07:31:53.930Z,43.3
2019-04-05T07:32:43.721Z,43.3
2019-04-05T07:33:33.306Z,43.3
2019-04-05T07:34:24.393Z,43.3
2019-04-05T07:35:14.196Z,43.3
2019-04-05T07:36:06.909Z,43.3
2019-04-05T07:36:54.663Z,43.3
2019-04-05T07:37:44.353Z,43.3
2019-04-05T07:38:34.138Z,43.3
2019-04-05T07:39:24.753Z,43.3
2019-04-05T07:40:14.263Z,43.3
2019-04-05T07:41:04.964Z,43.3
2019-04-05T07:41:54.400Z,43.2
2019-04-05T07:42:44.995Z,43.2
2019-04-05T07:43:35.075Z,43.2
2019-04-05T07:44:24.561Z,43.2
2019-04-05T07:45:14.638Z,43.2
2019-04-05T07:46:04.701Z,43.1
2019-04-05T07:46:55.305Z,43.2
2019-04-05T07:47:45.368Z,43.1
2019-04-05T07:48:48.778Z,43.1
2019-04-05T07:49:25.292Z,43.1
2019-04-05T07:50:14.974Z,43.1
2019-04-05T07:51:05.597Z,43.1
2019-04-05T07:51:55.670Z,43.1
2019-04-05T07:52:45.805Z,43.1
2019-04-05T07:53:35.786Z,43.1
2019-04-05T07:54:25.387Z,43.1
2019-04-05T07:55:15.352Z,43.1
2019-04-05T07:56:05.702Z,43.1
2019-04-05T07:56:55.479Z,43
2019-04-05T07:57:45.858Z,43
2019-04-05T07:58:35.882Z,43
2019-04-05T07:59:26.219Z,43
2019-04-05T08:00:16.297Z,43
2019-04-05T08:01:06.307Z,42.9
2019-04-05T08:01:56.112Z,43
2019-04-05T08:02:46.197Z,42.9
2019-04-05T08:03:36.236Z,42.9
2019-04-05T08:04:26.569Z,42.9
2019-04-05T08:05:16.374Z,42.9
2019-04-05T08:06:06.159Z,42.9
2019-04-05T08:06:56.747Z,42.9
2019-04-05T08:07:46.814Z,42.9
2019-04-05T08:08:36.866Z,42.9
2019-04-05T08:09:26.990Z,42.9
2019-04-05T08:10:17.027Z,42.9
2019-04-05T08:11:07.129Z,42.9
2019-04-05T08:11:57.099Z,42.9
2019-04-05T08:12:46.912Z,42.9
2019-04-05T08:13:37.253Z,42.8
2019-04-05T08:14:27.043Z,42.8
2019-04-05T08:15:17.056Z,42.8
2019-04-05T08:16:07.152Z,42.8
2019-04-05T08:16:57.185Z,42.8
2019-04-05T08:17:46.719Z,42.8
2019-04-05T08:18:37.070Z,42.8
2019-04-05T08:19:27.141Z,42.8
2019-04-05T08:20:17.508Z,42.8
2019-04-05T08:21:07.505Z,42.8
2019-04-05T08:21:57.847Z,42.8
2019-04-05T08:22:47.376Z,42.7
2019-04-05T08:23:37.407Z,42.7
2019-04-05T08:24:28.090Z,42.7
2019-04-05T08:25:17.812Z,42.7
2019-04-05T08:26:08.127Z,42.7
2019-04-05T08:26:58.204Z,42.6
2019-04-05T08:27:48.004Z,42.6
2019-04-05T08:28:38.356Z,42.6
2019-04-05T08:29:27.854Z,42.6
2019-04-05T08:30:18.439Z,42.6
2019-04-05T08:31:16.702Z,42.6
2019-04-05T08:31:58.602Z,42.6
2019-04-05T08:32:48.616Z,42.6
2019-04-05T08:33:40.087Z,42.6
2019-04-05T08:34:28.759Z,42.6
2019-04-05T08:35:18.524Z,42.6
2019-04-05T08:36:08.301Z,42.5
2019-04-05T08:36:58.634Z,42.5
2019-04-05T08:37:48.983Z,42.5
2019-04-05T08:38:42.246Z,42.5
2019-04-05T08:39:28.874Z,42.5
2019-04-05T08:40:19.164Z,42.5
2019-04-05T08:41:09.238Z,42.4
2019-04-05T08:41:59.004Z,42.4
2019-04-05T08:42:49.088Z,42.4
2019-04-05T08:43:38.903Z,42.4
2019-04-05T08:44:29.188Z,42.4
2019-04-05T08:45:19.530Z,42.4
2019-04-05T08:46:09.048Z,42.4
2019-04-05T08:46:59.638Z,42.4
2019-04-05T08:47:49.516Z,42.4
2019-04-05T08:48:39.488Z,42.4
2019-04-05T08:49:29.293Z,42.4
2019-04-05T08:50:19.875Z,42.4
2019-04-05T08:51:09.685Z,42.3
2019-04-05T08:51:59.478Z,42.3
2019-04-05T08:52:49.858Z,42.3
2019-04-05T08:53:39.848Z,42.3
2019-04-05T08:54:39.907Z,42.3
2019-04-05T08:55:20.253Z,42.3
2019-04-05T08:56:09.978Z,42.3
2019-04-05T08:57:00.397Z,42.3
2019-04-05T08:57:51.413Z,42.3
2019-04-05T08:58:39.934Z,42.3
2019-04-05T08:59:30.287Z,42.3
2019-04-05T09:00:20.069Z,42.3
2019-04-05T09:01:10.774Z,42.3
2019-04-05T09:02:00.455Z,42.2
2019-04-05T09:02:51.399Z,42.2
2019-04-05T09:03:40.325Z,42.2
2019-04-05T09:04:30.375Z,42.2
2019-04-05T09:05:20.995Z,42.2
2019-04-05T09:06:09.932Z,42.2
2019-04-05T09:07:01.105Z,42.1
2019-04-05T09:07:51.179Z,42.1
2019-04-05T09:08:40.965Z,42.1
2019-04-05T09:09:31.004Z,42.1
2019-04-05T09:10:20.907Z,42.1
2019-04-05T09:11:10.861Z,42.1
2019-04-05T09:12:01.482Z,42.1
2019-04-05T09:12:51.516Z,42
2019-04-05T09:13:41.614Z,42
2019-04-05T09:14:31.391Z,41.9
2019-04-05T09:15:21.439Z,41.9
2019-04-05T09:16:15.271Z,41.9
2019-04-05T09:17:01.831Z,41.9
2019-04-05T09:17:51.891Z,41.8
2019-04-05T09:18:41.670Z,41.8
2019-04-05T09:19:31.003Z,41.8
2019-04-05T09:20:22.086Z,41.8
2019-04-05T09:21:14.162Z,41.8
2019-04-05T09:22:01.621Z,41.7
2019-04-05T09:22:51.969Z,41.7
2019-04-05T09:23:42.094Z,41.7
2019-04-05T09:24:31.833Z,41.7
2019-04-05T09:25:23.521Z,41.7
2019-04-05T09:26:12.504Z,41.7
2019-04-05T09:27:02.561Z,41.7
2019-04-05T09:27:52.416Z,41.6
2019-04-05T09:28:42.192Z,41.6
2019-04-05T09:29:32.468Z,41.7
2019-04-05T09:30:22.793Z,41.7
2019-04-05T09:31:12.886Z,41.7
2019-04-05T09:32:17.298Z,41.8
2019-04-05T09:32:52.711Z,41.8
2019-04-05T09:33:43.043Z,41.9
2019-04-05T09:34:33.230Z,41.9
2019-04-05T09:35:22.936Z,41.9
2019-04-05T09:36:13.229Z,42
2019-04-05T09:37:03.041Z,42
2019-04-05T09:37:52.255Z,42
2019-04-05T09:38:43.115Z,42.1
2019-04-05T09:39:33.176Z,42.1
2019-04-05T09:40:24.307Z,42.1
2019-04-05T09:41:13.310Z,42.2
2019-04-05T09:42:03.128Z,42.3
2019-04-05T09:42:53.173Z,42.3
2019-04-05T09:43:43.537Z,42.3
2019-04-05T09:44:33.873Z,42.3
2019-04-05T09:45:23.615Z,42.4
2019-04-05T09:46:13.952Z,42.4
2019-04-05T09:47:03.199Z,42.4
2019-04-05T09:47:53.790Z,42.4
2019-04-05T09:48:44.142Z,42.5
2019-04-05T09:49:40.835Z,42.5
2019-04-05T09:50:23.955Z,42.6
2019-04-05T09:51:14.317Z,42.6
2019-04-05T09:52:03.270Z,42.6
2019-04-05T09:52:53.345Z,42.6
2019-04-05T09:53:44.515Z,42.6
2019-04-05T09:54:34.545Z,42.6
2019-04-05T09:55:24.603Z,42.7
2019-04-05T09:56:14.122Z,42.7
2019-04-05T09:57:04.757Z,42.7
2019-04-05T09:57:54.238Z,42.7
2019-04-05T09:58:44.889Z,42.7
2019-04-05T09:59:34.322Z,42.7
2019-04-05T10:00:24.990Z,42.7
2019-04-05T10:01:14.782Z,42.7
2019-04-05T10:02:05.162Z,42.8
2019-04-05T10:02:54.959Z,42.8
2019-04-05T10:03:44.715Z,42.8
2019-04-05T10:07:11.121Z,42.7
2019-04-05T10:08:21.755Z,42.8
2019-04-05T10:09:39.804Z,42.8
2019-04-05T12:06:11.775Z,42.4
2019-04-05T12:07:01.605Z,42.4
2019-04-05T12:07:52.295Z,42.4
2019-04-05T12:08:41.967Z,42.4
2019-04-05T12:09:32.309Z,42.3
2019-04-05T12:10:23.139Z,42.3
2019-04-05T12:11:12.127Z,42.4
2019-04-05T12:12:01.730Z,42.3
2019-04-05T12:12:52.577Z,42.3
2019-04-05T12:13:42.337Z,42.3
2019-04-05T12:14:38.232Z,42.4
2019-04-05T12:15:22.484Z,42.3
2019-04-05T12:16:14.194Z,42.3
2019-04-05T12:17:09.602Z,42.3
2019-04-05T12:17:52.369Z,42.3
2019-04-05T12:18:43.029Z,42.3
2019-04-05T12:19:38.803Z,42.3
2019-04-05T12:20:23.074Z,42.3
2019-04-05T12:21:12.630Z,42.3
2019-04-05T12:22:10.296Z,42.3
2019-04-05T12:22:56.476Z,42.3
2019-04-05T12:23:43.179Z,42.3
2019-04-05T12:24:36.661Z,42.3
2019-04-05T12:25:23.511Z,42.3
2019-04-05T12:26:13.243Z,42.3
2019-04-05T12:27:08.106Z,42.3
2019-04-05T12:28:11.526Z,42.3
2019-04-05T12:28:43.399Z,42.3
2019-04-05T12:29:33.465Z,42.3
2019-04-05T12:30:23.291Z,42.3
2019-04-05T12:31:13.874Z,42.3
2019-04-05T12:32:03.716Z,42.3
2019-04-05T12:32:53.766Z,42.3
2019-04-05T12:33:51.176Z,42.3
2019-04-05T12:34:33.325Z,42.3
2019-04-05T12:35:25.858Z,42.3
2019-04-05T12:36:13.946Z,42.3
2019-04-05T12:37:04.291Z,42.3
2019-04-05T12:37:59.343Z,42.3
2019-04-05T12:38:44.427Z,42.3
2019-04-05T12:39:38.663Z,42.3
2019-04-05T12:40:24.535Z,42.3
2019-04-05T12:41:18.090Z,42.3
2019-04-05T12:42:04.413Z,42.3
2019-04-05T12:42:57.035Z,42.3
2019-04-05T12:43:49.415Z,42.3
2019-04-05T12:44:34.297Z,42.3
2019-04-05T12:45:24.898Z,42.3
2019-04-05T12:46:19.720Z,42.3
2019-04-05T12:47:04.482Z,42.3
2019-04-05T12:47:54.805Z,42.2
2019-04-05T12:48:49.117Z,42.3
2019-04-05T12:49:35.208Z,42.2
2019-04-05T12:50:24.995Z,42.2
2019-04-05T12:51:19.435Z,42.2
2019-04-05T12:52:04.617Z,42.2
2019-04-05T12:52:59.422Z,42.2
2019-04-05T12:53:45.027Z,42.2
2019-04-05T12:54:35.010Z,42.2
2019-04-05T12:55:27.990Z,42.2
2019-04-05T12:56:15.144Z,42.2
2019-04-05T12:57:05.262Z,42.2
2019-04-05T12:57:58.869Z,42.2
2019-04-05T12:58:45.887Z,42.2
2019-04-05T12:59:35.684Z,42.2
2019-04-05T13:00:29.868Z,42.2
2019-04-05T13:01:15.819Z,42.2
2019-04-05T13:02:05.584Z,42.2
2019-04-05T13:02:58.459Z,42.2
2019-04-05T13:03:45.714Z,42.2
2019-04-05T13:04:36.019Z,42.2
2019-04-05T13:05:25.836Z,42.2
2019-04-05T13:06:16.916Z,42.2
2019-04-05T13:07:06.489Z,42.2
2019-04-05T13:07:57.597Z,42.2
2019-04-05T13:08:46.611Z,42.2
2019-04-05T13:09:36.829Z,42.2
2019-04-05T13:10:33.067Z,42.1
2019-04-05T13:11:16.932Z,42.1
2019-04-05T13:12:06.668Z,42.2
2019-04-05T13:13:01.281Z,42.1
2019-04-05T13:13:45.853Z,42.1
2019-04-05T13:14:37.032Z,42.1
2019-04-05T13:15:25.719Z,42.1
2019-04-05T13:16:16.590Z,42.1
2019-04-05T13:17:06.714Z,42.1
2019-04-05T13:18:00.282Z,42.1
2019-04-05T13:18:46.817Z,42.1
2019-04-05T13:19:37.425Z,42.1
2019-04-05T13:20:30.847Z,42.1
2019-04-05T13:21:19.200Z,42.1
2019-04-05T13:22:07.608Z,42.1
2019-04-05T13:22:57.083Z,42.1
2019-04-05T13:23:47.180Z,42.1
2019-04-05T13:24:41.653Z,42.1
2019-04-05T13:25:27.335Z,42.1
2019-04-05T13:26:17.389Z,42.1
2019-04-05T13:27:11.681Z,42.1
2019-04-05T13:27:58.017Z,42.1
2019-04-05T13:28:52.218Z,42.1
2019-04-05T13:29:37.855Z,42.1
2019-04-05T13:30:28.015Z,42.1
2019-04-05T13:31:21.627Z,42.1
2019-04-05T13:32:08.047Z,42.1
2019-04-05T13:32:57.564Z,42.1
2019-04-05T13:33:47.893Z,42.1
2019-04-05T13:34:38.205Z,42.1
2019-04-05T13:35:28.292Z,42.1
2019-04-05T13:36:18.608Z,42.1
2019-04-05T13:37:22.752Z,42.1
2019-04-05T13:38:02.597Z,42.1
2019-04-05T13:39:03.124Z,42
2019-04-05T13:39:38.629Z,42.1
2019-04-05T13:40:33.085Z,42.1
2019-04-05T13:41:21.565Z,42
2019-04-05T13:42:09.102Z,42.1
2019-04-05T13:43:03.629Z,42.1
2019-04-05T13:43:48.869Z,42.1
2019-04-05T13:44:38.956Z,42.1
2019-04-05T13:45:28.720Z,42
2019-04-05T13:46:29.304Z,42
2019-04-05T13:47:12.544Z,42
2019-04-05T13:47:59.184Z,42
2019-04-05T13:48:49.259Z,42
2019-04-05T13:49:43.898Z,42
2019-04-05T13:50:29.376Z,42
2019-04-05T13:51:35.046Z,42
2019-04-05T13:52:14.871Z,42
2019-04-05T13:52:59.568Z,42
2019-04-05T13:53:49.990Z,42
2019-04-05T13:54:43.248Z,42
2019-04-05T13:55:30.064Z,42
2019-04-05T13:56:20.076Z,42
2019-04-05T13:57:13.488Z,42
2019-04-05T13:58:03.226Z,41.9
2019-04-05T13:58:50.633Z,42
2019-04-05T13:59:40.049Z,42
2019-04-05T14:00:30.101Z,42
2019-04-05T14:01:25.151Z,42
2019-04-05T14:02:10.733Z,42
2019-04-05T14:03:00.294Z,42
2019-04-05T14:03:53.876Z,41.9
2019-04-05T14:04:40.679Z,41.9
2019-04-05T14:07:11.684Z,41.9
2019-04-05T14:08:14.273Z,41.9
2019-04-05T14:08:51.819Z,41.9
2019-04-05T14:09:44.637Z,41.9
2019-04-05T14:10:31.977Z,41.9
2019-04-05T14:11:21.435Z,41.9
2019-04-05T14:12:13.732Z,41.9
2019-04-05T14:13:02.375Z,41.9
2019-04-05T14:13:51.889Z,41.9
2019-04-05T14:14:51.361Z,41.9
2019-04-05T14:15:34.850Z,41.9
2019-04-05T14:16:22.634Z,41.9
2019-04-05T14:17:17.203Z,41.9
2019-04-05T14:18:02.490Z,41.9
2019-04-05T14:18:53.795Z,41.9
2019-04-05T14:19:42.606Z,41.9
2019-04-05T14:20:32.653Z,41.9
2019-04-05T14:21:25.881Z,41.9
2019-04-05T14:22:15.448Z,41.9
2019-04-05T14:23:04.408Z,41.9
2019-04-05T14:23:57.768Z,41.9
2019-04-05T14:24:45.631Z,41.9
2019-04-05T14:25:35.891Z,41.9
2019-04-05T14:26:27.325Z,41.9
2019-04-05T14:27:15.847Z,41.9
2019-04-05T14:28:08.818Z,41.9
2019-04-05T14:28:57.043Z,41.9
2019-04-05T14:29:48.181Z,41.9
2019-04-05T14:30:37.216Z,41.9
2019-04-05T14:31:25.848Z,41.9
2019-04-05T14:32:25.508Z,41.9
2019-04-05T14:33:05.980Z,41.9
2019-04-05T14:33:58.408Z,41.9
2019-04-05T14:34:46.351Z,41.9
2019-04-05T14:35:36.412Z,41.9
2019-04-05T14:36:27.173Z,41.9
2019-04-05T14:37:16.534Z,41.8
2019-04-05T14:38:06.947Z,41.9
2019-04-05T14:38:56.685Z,41.8
2019-04-05T14:39:46.437Z,41.8
2019-04-05T14:40:36.798Z,41.8
2019-04-05T14:41:26.828Z,41.8
2019-04-05T14:42:19.101Z,41.8
2019-04-05T14:43:06.990Z,41.8
2019-04-05T14:43:57.507Z,41.8
2019-04-05T14:44:47.122Z,41.8
2019-04-05T14:45:36.942Z,41.8
2019-04-05T14:46:31.634Z,41.8
2019-04-05T14:47:19.718Z,41.8
2019-04-05T14:48:06.295Z,41.8
2019-04-05T14:48:58.468Z,41.8
2019-04-05T14:49:47.189Z,41.8
2019-04-05T14:50:37.254Z,41.8
2019-04-05T14:51:31.912Z,41.8
2019-04-05T14:52:17.344Z,41.8
2019-04-05T14:53:07.370Z,41.8
2019-04-05T14:53:57.199Z,41.8
2019-04-05T14:54:47.339Z,41.8
2019-04-05T14:55:37.627Z,41.8
2019-04-05T14:56:32.141Z,41.8
2019-04-05T14:57:18.012Z,41.8
2019-04-05T14:58:12.694Z,41.8
2019-04-05T14:58:58.116Z,41.8
2019-04-05T14:59:47.919Z,41.8
2019-04-05T15:00:38.254Z,41.8
2019-04-05T15:01:28.025Z,41.8
2019-04-05T15:02:17.806Z,41.8
2019-04-05T15:03:08.141Z,41.8
2019-04-05T15:03:58.224Z,41.8
2019-04-05T15:04:51.337Z,41.8
2019-04-05T15:05:38.593Z,41.8
2019-04-05T15:06:30.299Z,41.8
2019-04-05T15:07:23.004Z,41.8
2019-04-05T15:08:08.596Z,41.8
2019-04-05T15:08:58.557Z,41.8
2019-04-05T15:09:48.064Z,41.8
2019-04-05T15:10:38.693Z,41.8
2019-04-05T15:11:32.747Z,41.8
2019-04-05T15:12:19.068Z,41.7
2019-04-05T15:13:08.881Z,41.7
2019-04-05T15:13:58.373Z,41.7
2019-04-05T15:14:49.337Z,41.7
2019-04-05T15:15:38.490Z,41.7
2019-04-05T15:16:28.851Z,41.7
2019-04-05T15:17:19.953Z,41.7
2019-04-05T15:18:09.215Z,41.7
2019-04-05T15:18:59.557Z,41.7
2019-04-05T15:19:49.614Z,41.7
2019-04-05T15:20:39.472Z,41.7
2019-04-05T15:21:29.494Z,41.7
2019-04-05T15:22:19.535Z,41.7
2019-04-05T15:23:16.728Z,41.7
2019-04-05T15:23:59.945Z,41.6
2019-04-05T15:24:51.430Z,41.7
2019-04-05T15:25:39.291Z,41.7
2019-04-05T15:26:30.097Z,41.7
2019-04-05T15:27:23.721Z,41.7
2019-04-05T15:28:10.223Z,41.7
2019-04-05T15:29:00.045Z,41.7
2019-04-05T15:29:50.388Z,41.6
2019-04-05T15:30:40.429Z,41.6
2019-04-05T15:31:30.546Z,41.6
2019-04-05T15:32:27.007Z,41.6
2019-04-05T15:33:10.357Z,41.6
2019-04-05T15:34:02.148Z,41.6
2019-04-05T15:34:50.467Z,41.6
2019-04-05T15:35:40.776Z,41.6
2019-04-05T15:36:34.799Z,41.6
2019-04-05T15:37:20.620Z,41.6
2019-04-05T15:38:10.409Z,41.6
2019-04-05T15:39:04.859Z,41.6
2019-04-05T15:39:50.838Z,41.6
2019-04-05T15:40:40.586Z,41.6
2019-04-05T15:41:30.924Z,41.6
2019-04-05T15:42:21.304Z,41.6
2019-04-05T15:43:11.331Z,41.6
2019-04-05T15:44:01.379Z,41.6
2019-04-05T15:44:51.697Z,41.6
2019-04-05T15:45:44.234Z,41.6
2019-04-05T15:46:31.039Z,41.6
2019-04-05T15:47:25.411Z,41.6
2019-04-05T15:48:10.871Z,41.6
2019-04-05T15:49:01.491Z,41.6
2019-04-05T15:49:55.743Z,41.6
2019-04-05T15:50:41.306Z,41.6
2019-04-05T15:51:31.921Z,41.6
2019-04-05T15:52:23.194Z,41.6
2019-04-05T15:53:11.087Z,41.6
2019-04-05T15:54:04.588Z,41.6
2019-04-05T15:54:51.922Z,41.6
2019-04-05T15:55:41.202Z,41.6
2019-04-05T15:56:35.760Z,41.6
2019-04-05T15:57:21.328Z,41.6
2019-04-05T15:58:11.385Z,41.6
2019-04-05T15:59:06.335Z,41.6
2019-04-05T15:59:51.886Z,41.5
2019-04-05T16:00:42.404Z,41.5
2019-04-05T16:01:36.458Z,41.6
2019-04-05T16:02:22.718Z,41.5
2019-04-05T16:03:12.483Z,41.6
2019-04-05T16:04:06.286Z,41.5
2019-04-05T16:04:52.388Z,41.5
2019-04-05T16:07:11.612Z,41.5
2019-04-05T16:08:01.459Z,41.5
2019-04-05T16:08:51.747Z,41.5
2019-04-05T16:09:41.798Z,41.5
2019-04-05T16:10:32.142Z,41.5
2019-04-05T16:11:22.182Z,41.5
2019-04-05T16:12:12.227Z,41.5
2019-04-05T16:13:02.019Z,41.5
2019-04-05T16:13:52.102Z,41.5
2019-04-05T16:14:42.152Z,41.5
2019-04-05T16:15:31.933Z,41.5
2019-04-05T16:16:22.558Z,41.5
2019-04-05T16:17:15.150Z,41.4
2019-04-05T16:18:02.392Z,41.5
2019-04-05T16:18:52.724Z,41.4
2019-04-05T16:19:42.948Z,41.4
2019-04-05T16:20:32.369Z,41.4
2019-04-05T16:21:22.424Z,41.4